Time;durP1;ratioP1;P1;durP2;ratioP2;P2;SDS_P1;SDS_P2;PMS_P1;PMS_P2;Temp;Humidity;BMP_temperature;BMP_pressure;BME280_temperature;BME280_humidity;BME280_pressure;Samples;Min_cycle;Max_cycle;Signal;HPM_P1;HPM_P2
2023/03/12 00:00:52;;;;;;;38.33;10.52;;;11.30;67.40;;;;;;4985972;28;20054;-79
2023/03/12 00:03:18;;;;;;;40.17;11.10;;;11.30;67.50;;;;;;4983998;28;20034;-81
2023/03/12 00:05:44;;;;;;;45.50;8.35;;;11.20;67.30;;;;;;4998044;28;20261;-79
2023/03/12 00:08:11;;;;;;;50.22;10.95;;;11.30;67.50;;;;;;5002888;28;20033;-80
2023/03/12 00:10:39;;;;;;;43.15;10.80;;;11.30;67.50;;;;;;4987740;28;20022;-79
2023/03/12 00:13:06;;;;;;;51.72;11.10;;;11.30;67.50;;;;;;4989687;28;20034;-78
2023/03/12 00:15:36;;;;;;;48.80;11.95;;;11.30;67.60;;;;;;4988826;28;20624;-78
2023/03/12 00:18:02;;;;;;;38.72;8.68;;;11.30;67.60;;;;;;4991615;28;20077;-79
2023/03/12 00:20:28;;;;;;;47.42;11.93;;;11.30;67.60;;;;;;4988357;28;20042;-80
2023/03/12 00:22:54;;;;;;;50.47;10.73;;;11.30;67.70;;;;;;4989913;28;20478;-79
2023/03/12 00:25:20;;;;;;;51.72;12.73;;;11.30;67.60;;;;;;4989274;28;20042;-79
2023/03/12 00:27:46;;;;;;;46.90;11.25;;;11.30;67.70;;;;;;4988493;28;20445;-81
2023/03/12 00:30:12;;;;;;;49.35;10.55;;;11.30;67.70;;;;;;4993800;28;20041;-80
2023/03/12 00:32:39;;;;;;;51.80;12.95;;;11.30;67.70;;;;;;4985839;28;20173;-78
2023/03/12 00:35:05;;;;;;;42.70;10.38;;;11.30;67.70;;;;;;4977399;28;20030;-80
2023/03/12 00:37:32;;;;;;;54.63;10.90;;;11.30;67.70;;;;;;4983561;28;20034;-77
2023/03/12 00:40:00;;;;;;;57.50;11.85;;;11.30;67.70;;;;;;4973292;28;20116;-79
2023/03/12 00:42:27;;;;;;;53.65;10.70;;;11.30;67.80;;;;;;4986457;28;20034;-79
2023/03/12 00:44:53;;;;;;;49.42;10.68;;;11.30;67.80;;;;;;4987777;28;20288;-79
2023/03/12 00:47:19;;;;;;;44.92;11.60;;;11.20;67.60;;;;;;4988940;28;20047;-78
2023/03/12 00:49:45;;;;;;;53.60;12.35;;;11.30;67.80;;;;;;4982997;28;20122;-78
2023/03/12 00:52:13;;;;;;;43.78;11.35;;;11.20;67.70;;;;;;4989916;28;20362;-77
2023/03/12 00:54:39;;;;;;;51.50;11.43;;;11.30;67.90;;;;;;4986732;28;20031;-79
2023/03/12 00:57:05;;;;;;;50.83;11.52;;;11.20;67.70;;;;;;4996430;28;20026;-76
2023/03/12 00:59:33;;;;;;;41.08;12.48;;;11.20;67.70;;;;;;5004253;28;20152;-79
2023/03/12 01:01:59;;;;;;;44.10;10.25;;;11.20;67.70;;;;;;4997194;28;20034;-78
2023/03/12 01:04:25;;;;;;;43.33;10.95;;;11.20;67.70;;;;;;4992577;28;20120;-78
2023/03/12 01:06:51;;;;;;;47.30;11.55;;;11.20;67.80;;;;;;5010117;28;20034;-78
2023/03/12 01:09:18;;;;;;;50.45;11.23;;;11.30;68.00;;;;;;5004716;28;20027;-78
2023/03/12 01:11:44;;;;;;;42.33;8.88;;;11.30;68.00;;;;;;5002857;28;20042;-77
2023/03/12 01:14:10;;;;;;;40.92;9.90;;;11.20;67.80;;;;;;5002131;28;20080;-79
2023/03/12 01:16:36;;;;;;;45.90;11.30;;;11.30;68.00;;;;;;4990485;28;20061;-78
2023/03/12 01:19:02;;;;;;;50.13;12.27;;;11.20;67.90;;;;;;4990808;28;20084;-78
2023/03/12 01:21:29;;;;;;;55.65;11.75;;;11.20;67.90;;;;;;4988756;28;20061;-77
2023/03/12 01:23:56;;;;;;;51.03;13.77;;;11.30;68.10;;;;;;4984073;28;20030;-78
2023/03/12 01:26:23;;;;;;;50.85;12.25;;;11.30;68.10;;;;;;4999462;28;20117;-79
2023/03/12 01:28:49;;;;;;;40.20;9.63;;;11.20;67.90;;;;;;4989391;28;20030;-77
2023/03/12 01:31:17;;;;;;;47.38;11.73;;;11.20;68.00;;;;;;4987248;28;20518;-78
2023/03/12 01:33:46;;;;;;;42.75;10.68;;;11.20;68.00;;;;;;4975224;28;20416;-78
2023/03/12 01:36:32;;;;;;;52.25;11.93;;;11.20;68.00;;;;;;4968641;28;20058;-77
2023/03/12 01:39:00;;;;;;;37.55;10.07;;;11.20;68.10;;;;;;4985292;28;20067;-78
2023/03/12 01:41:28;;;;;;;47.47;10.55;;;11.20;68.00;;;;;;4991291;28;20049;-79
2023/03/12 01:43:54;;;;;;;40.28;9.50;;;11.20;68.00;;;;;;4984946;28;20022;-78
2023/03/12 01:46:42;;;;;;;45.22;9.63;;;11.10;67.90;;;;;;4985801;28;20030;-78
2023/03/12 01:49:30;;;;;;;37.33;8.77;;;11.10;67.90;;;;;;4986864;28;20042;-79
2023/03/12 01:52:02;;;;;;;41.42;9.90;;;11.10;68.00;;;;;;4983797;28;20034;-79
2023/03/12 01:55:08;;;;;;;38.90;9.95;;;11.00;67.80;;;;;;4990560;28;20030;-79
2023/03/12 01:57:48;;;;;;;45.67;11.55;;;11.00;67.90;;;;;;4982073;28;20083;-79
2023/03/12 02:00:18;;;;;;;39.90;9.38;;;11.00;67.90;;;;;;4986665;28;20038;-80
2023/03/12 02:02:45;;;;;;;40.65;10.80;;;11.00;67.90;;;;;;4983697;28;20379;-78
2023/03/12 02:05:24;;;;;;;42.45;12.32;;;11.00;68.00;;;;;;4991093;28;20041;-78
2023/03/12 02:07:50;;;;;;;40.30;9.20;;;10.90;67.80;;;;;;4968314;28;20428;-79
2023/03/12 02:10:16;;;;;;;43.58;11.27;;;11.00;68.00;;;;;;4976119;28;20051;-79
2023/03/12 02:12:42;;;;;;;44.20;10.68;;;10.90;67.90;;;;;;4983133;28;20030;-78
2023/03/12 02:15:09;;;;;;;41.55;12.70;;;10.90;67.90;;;;;;4979423;28;20037;-78
2023/03/12 02:17:36;;;;;;;41.22;9.90;;;10.90;68.00;;;;;;4979162;28;20054;-77
2023/03/12 02:20:09;;;;;;;41.13;11.45;;;10.90;67.90;;;;;;4982609;28;20049;-80
2023/03/12 02:22:39;;;;;;;36.67;10.05;;;10.90;67.90;;;;;;4989732;28;20069;-79
2023/03/12 02:25:29;;;;;;;48.35;10.60;;;10.90;67.90;;;;;;4981098;28;20749;-77
2023/03/12 02:28:02;;;;;;;48.22;10.30;;;10.90;68.00;;;;;;4982413;28;20068;-79
2023/03/12 02:30:30;;;;;;;41.95;10.32;;;10.90;67.90;;;;;;4987440;28;20050;-79
2023/03/12 02:33:00;;;;;;;42.05;11.15;;;10.90;67.90;;;;;;4979169;28;20116;-78
2023/03/12 02:35:26;;;;;;;42.92;10.00;;;10.90;67.90;;;;;;4986315;28;20038;-79
2023/03/12 02:37:54;;;;;;;46.60;11.70;;;10.90;68.00;;;;;;4981169;28;21566;-78
2023/03/12 02:40:33;;;;;;;45.65;11.65;;;10.90;67.90;;;;;;4978008;28;20084;-78
2023/03/12 02:43:01;;;;;;;42.35;11.20;;;11.00;68.20;;;;;;4980150;28;20050;-78
2023/03/12 02:45:28;;;;;;;45.80;10.02;;;10.90;67.90;;;;;;4983319;28;20069;-80
2023/03/12 02:47:54;;;;;;;39.50;10.65;;;11.00;68.10;;;;;;4983562;28;20129;-78
2023/03/12 02:50:20;;;;;;;38.13;10.88;;;11.00;68.10;;;;;;4985735;28;20030;-78
2023/03/12 02:52:46;;;;;;;41.50;10.68;;;10.90;67.90;;;;;;4969633;28;20061;-78
2023/03/12 02:55:13;;;;;;;41.78;8.75;;;11.00;68.20;;;;;;4987175;28;20489;-79
2023/03/12 02:57:39;;;;;;;42.13;10.68;;;11.00;68.20;;;;;;4987881;28;20033;-78
2023/03/12 03:00:11;;;;;;;49.20;10.55;;;11.00;68.20;;;;;;4985204;28;20050;-79
2023/03/12 03:02:39;;;;;;;37.92;9.65;;;10.90;68.00;;;;;;4985313;28;20327;-78
2023/03/12 03:05:07;;;;;;;52.35;10.23;;;11.00;68.20;;;;;;4988973;28;20045;-79
2023/03/12 03:07:33;;;;;;;39.33;9.50;;;10.90;68.00;;;;;;4987697;28;20065;-79
2023/03/12 03:10:03;;;;;;;47.42;11.70;;;10.90;68.00;;;;;;4990397;28;20070;-77
2023/03/12 03:12:34;;;;;;;53.90;11.65;;;10.90;68.10;;;;;;4982484;28;20073;-78
2023/03/12 03:15:01;;;;;;;41.15;11.07;;;10.90;68.10;;;;;;4982307;28;20090;-78
2023/03/12 03:17:27;;;;;;;52.70;10.05;;;10.90;68.10;;;;;;4985173;28;20085;-79
2023/03/12 03:19:53;;;;;;;44.35;10.77;;;10.90;68.10;;;;;;4968646;28;20038;-79
2023/03/12 03:22:20;;;;;;;55.08;12.27;;;10.90;68.20;;;;;;4986492;28;20037;-78
2023/03/12 03:24:47;;;;;;;41.08;8.98;;;10.90;68.20;;;;;;4986238;28;20027;-78
2023/03/12 03:27:13;;;;;;;50.38;9.65;;;10.90;68.20;;;;;;4982505;28;20597;-79
2023/03/12 03:29:40;;;;;;;39.75;10.68;;;10.90;68.20;;;;;;4982995;28;20042;-80
2023/03/12 03:32:07;;;;;;;53.70;12.43;;;10.90;68.20;;;;;;4986595;28;20034;-80
2023/03/12 03:34:33;;;;;;;46.63;10.25;;;10.90;68.20;;;;;;4993030;28;20108;-79
2023/03/12 03:36:59;;;;;;;46.47;10.20;;;10.90;68.20;;;;;;4980200;28;20291;-79
2023/03/12 03:39:28;;;;;;;43.15;10.30;;;10.90;68.20;;;;;;4985204;28;20062;-79
2023/03/12 03:41:57;;;;;;;42.70;11.38;;;10.90;68.20;;;;;;4985069;28;20157;-80
2023/03/12 03:44:25;;;;;;;52.70;9.75;;;10.90;68.20;;;;;;4985549;28;20093;-81
2023/03/12 03:46:54;;;;;;;43.88;9.32;;;10.90;68.20;;;;;;4985679;28;20046;-81
2023/03/12 03:49:20;;;;;;;44.40;8.70;;;10.90;68.20;;;;;;4984419;28;20110;-79
2023/03/12 03:51:48;;;;;;;41.58;9.98;;;10.90;68.70;;;;;;4982649;28;20157;-80
2023/03/12 03:54:19;;;;;;;40.22;9.75;;;10.90;68.20;;;;;;4984295;28;20045;-80
2023/03/12 03:56:46;;;;;;;47.90;10.88;;;10.90;68.20;;;;;;4980585;28;20302;-80
2023/03/12 03:59:12;;;;;;;42.45;9.30;;;10.90;68.70;;;;;;4985200;28;20527;-79
2023/03/12 04:01:40;;;;;;;36.40;10.27;;;10.90;68.20;;;;;;4985671;28;20026;-80
2023/03/12 04:04:06;;;;;;;48.38;9.93;;;10.90;68.20;;;;;;4985574;28;20525;-79
2023/03/12 04:06:34;;;;;;;44.17;11.93;;;10.90;68.30;;;;;;4985546;28;20549;-80
2023/03/12 04:09:00;;;;;;;44.53;10.52;;;10.90;68.30;;;;;;4984667;28;20070;-79
2023/03/12 04:11:28;;;;;;;39.80;10.02;;;10.90;68.30;;;;;;4985024;28;20057;-80
2023/03/12 04:13:56;;;;;;;40.13;8.88;;;10.90;68.30;;;;;;4983869;28;20030;-79
2023/03/12 04:16:25;;;;;;;37.72;10.88;;;10.80;68.20;;;;;;4988185;28;20033;-79
2023/03/12 04:18:53;;;;;;;37.45;10.10;;;10.90;68.40;;;;;;4973170;28;20041;-79
2023/03/12 04:21:20;;;;;;;43.47;8.88;;;10.90;68.40;;;;;;4988228;28;20462;-79
2023/03/12 04:23:48;;;;;;;47.88;12.13;;;10.90;68.40;;;;;;4974305;28;20038;-79
2023/03/12 04:26:16;;;;;;;48.10;11.27;;;10.90;68.40;;;;;;4984720;28;20034;-78
2023/03/12 04:28:43;;;;;;;39.38;10.30;;;10.90;68.50;;;;;;4981849;28;20382;-78
2023/03/12 04:31:10;;;;;;;35.35;8.98;;;10.90;68.50;;;;;;4987135;28;20035;-77
2023/03/12 04:33:56;;;;;;;36.20;9.60;;;10.90;68.50;;;;;;4985819;28;20137;-80
2023/03/12 04:36:24;;;;;;;47.85;9.00;;;10.90;68.40;;;;;;4989656;28;20034;-79
2023/03/12 04:38:51;;;;;;;40.67;9.23;;;10.90;68.40;;;;;;4988202;28;20023;-79
2023/03/12 04:41:22;;;;;;;36.58;9.80;;;10.90;68.50;;;;;;4989370;28;20100;-82
2023/03/12 04:44:02;;;;;;;33.90;9.77;;;10.90;68.50;;;;;;4990483;28;20086;-81
2023/03/12 04:46:29;;;;;;;44.30;9.98;;;10.90;68.50;;;;;;4989212;28;20053;-80
2023/03/12 04:48:55;;;;;;;49.67;8.57;;;10.90;68.50;;;;;;4987088;28;20572;-80
2023/03/12 04:51:22;;;;;;;32.72;10.82;;;10.90;68.50;;;;;;4984734;28;20054;-81
2023/03/12 04:53:49;;;;;;;42.65;10.07;;;10.80;68.30;;;;;;4989711;28;20461;-80
2023/03/12 04:56:15;;;;;;;35.05;9.57;;;10.90;68.50;;;;;;4977127;28;20034;-79
2023/03/12 04:58:43;;;;;;;45.67;8.23;;;10.90;68.50;;;;;;4987919;28;20069;-79
2023/03/12 05:01:25;;;;;;;35.55;9.55;;;10.80;68.30;;;;;;4995816;28;20108;-79
2023/03/12 05:03:52;;;;;;;43.65;10.18;;;10.80;68.40;;;;;;4988370;28;20164;-80
2023/03/12 05:06:19;;;;;;;34.20;9.18;;;10.80;68.30;;;;;;4996773;28;20086;-80
2023/03/12 05:08:46;;;;;;;42.47;9.20;;;10.80;68.30;;;;;;4988299;28;20344;-79
2023/03/12 05:11:13;;;;;;;35.47;8.82;;;10.80;68.30;;;;;;4988110;28;20443;-80
2023/03/12 05:13:40;;;;;;;36.75;9.68;;;10.80;68.30;;;;;;4985956;28;20037;-80
2023/03/12 05:16:06;;;;;;;32.70;7.90;;;10.80;68.40;;;;;;4990173;28;20116;-80
2023/03/12 05:18:32;;;;;;;33.10;7.80;;;10.80;68.40;;;;;;4972364;28;20054;-81
2023/03/12 05:21:02;;;;;;;36.03;7.47;;;10.80;68.40;;;;;;4988347;28;20453;-80
2023/03/12 05:23:28;;;;;;;31.60;8.32;;;10.80;68.40;;;;;;4998513;28;20034;-80
2023/03/12 05:25:54;;;;;;;42.03;9.05;;;10.80;68.50;;;;;;4988435;28;20402;-78
2023/03/12 05:28:21;;;;;;;38.25;9.65;;;10.80;68.40;;;;;;4988732;28;20177;-80
2023/03/12 05:30:47;;;;;;;41.08;9.30;;;10.80;68.50;;;;;;4988301;28;20030;-78
2023/03/12 05:33:13;;;;;;;28.98;8.35;;;10.80;68.50;;;;;;4986964;28;20107;-78
2023/03/12 05:35:40;;;;;;;29.85;7.97;;;10.80;68.50;;;;;;4987068;28;20566;-78
2023/03/12 05:38:06;;;;;;;32.85;6.72;;;10.80;68.50;;;;;;4985711;28;20141;-78
2023/03/12 05:40:32;;;;;;;29.13;7.35;;;10.80;68.60;;;;;;4981964;28;20045;-78
2023/03/12 05:42:58;;;;;;;31.02;8.82;;;10.80;68.60;;;;;;4983761;28;20497;-78
2023/03/12 05:45:26;;;;;;;34.35;9.15;;;10.80;68.50;;;;;;4982707;28;20129;-77
2023/03/12 05:47:54;;;;;;;27.92;7.18;;;10.80;68.60;;;;;;4988931;28;20064;-78
2023/03/12 05:50:20;;;;;;;43.33;11.70;;;10.80;68.60;;;;;;4988985;28;20034;-79
2023/03/12 05:52:46;;;;;;;32.83;7.95;;;10.80;68.60;;;;;;4985685;28;20188;-79
2023/03/12 05:55:12;;;;;;;35.33;8.43;;;10.80;68.60;;;;;;4989473;28;20042;-79
2023/03/12 05:57:38;;;;;;;41.05;9.13;;;10.80;68.60;;;;;;4982558;28;20220;-78
2023/03/12 06:00:06;;;;;;;36.30;9.82;;;10.70;68.50;;;;;;4987653;28;20037;-78
2023/03/12 06:02:39;;;;;;;44.60;10.25;;;10.80;68.70;;;;;;4985948;28;20497;-78
2023/03/12 06:05:08;;;;;;;32.85;8.25;;;10.80;68.70;;;;;;4985151;28;20042;-78
2023/03/12 06:07:34;;;;;;;31.83;8.45;;;10.80;68.70;;;;;;4977322;28;20038;-79
2023/03/12 06:10:00;;;;;;;35.90;8.88;;;10.80;68.80;;;;;;4992991;28;20137;-79
2023/03/12 06:12:26;;;;;;;38.45;7.22;;;10.80;68.80;;;;;;4967113;28;20140;-78
2023/03/12 06:14:52;;;;;;;36.53;6.90;;;10.80;68.80;;;;;;4976928;28;20042;-77
2023/03/12 06:17:18;;;;;;;41.25;10.27;;;10.80;68.80;;;;;;4965170;28;20729;-77
2023/03/12 06:19:44;;;;;;;35.88;7.35;;;10.80;68.80;;;;;;4973993;28;20448;-79
2023/03/12 06:22:13;;;;;;;36.47;9.23;;;10.80;68.80;;;;;;4978294;28;20061;-80
2023/03/12 06:24:41;;;;;;;29.33;8.70;;;10.80;68.80;;;;;;4976849;28;20034;-78
2023/03/12 06:27:07;;;;;;;26.58;7.35;;;10.90;69.00;;;;;;4979183;28;20027;-77
2023/03/12 06:29:33;;;;;;;35.42;7.30;;;10.80;68.90;;;;;;4978012;28;20484;-78
2023/03/12 06:31:59;;;;;;;32.65;7.47;;;10.80;68.90;;;;;;4987148;28;20464;-76
2023/03/12 06:34:25;;;;;;;31.50;9.38;;;10.80;68.90;;;;;;4976599;28;20042;-78
2023/03/12 06:36:51;;;;;;;34.85;7.70;;;10.80;69.00;;;;;;4975662;28;20022;-78
2023/03/12 06:39:17;;;;;;;37.47;8.85;;;10.80;68.90;;;;;;4984132;28;20057;-78
2023/03/12 06:41:43;;;;;;;30.20;7.40;;;10.80;69.00;;;;;;4966140;28;20477;-79
2023/03/12 06:44:09;;;;;;;25.83;6.57;;;10.80;69.00;;;;;;4983893;28;20044;-78
2023/03/12 06:46:35;;;;;;;31.33;7.20;;;10.80;69.00;;;;;;4983113;28;20037;-80
2023/03/12 06:49:02;;;;;;;28.85;6.82;;;10.80;69.00;;;;;;4987782;28;20129;-79
2023/03/12 06:51:28;;;;;;;31.75;6.93;;;10.90;69.20;;;;;;4982664;28;20173;-78
2023/03/12 06:53:53;;;;;;;31.92;8.68;;;10.80;69.00;;;;;;4982742;28;20211;-78
2023/03/12 06:56:19;;;;;;;32.05;7.28;;;10.80;69.00;;;;;;4981344;28;20593;-78
2023/03/12 06:58:45;;;;;;;25.80;6.32;;;10.90;69.20;;;;;;4986624;28;20079;-77
2023/03/12 07:01:11;;;;;;;32.70;6.40;;;10.90;69.10;;;;;;4967681;28;20637;-78
2023/03/12 07:03:37;;;;;;;39.88;8.45;;;10.90;69.10;;;;;;4983796;28;20064;-85
2023/03/12 07:06:04;;;;;;;29.65;6.63;;;11.00;69.20;;;;;;4986421;28;20058;-79
2023/03/12 07:08:30;;;;;;;31.27;7.97;;;11.00;69.40;;;;;;4981751;28;20041;-76
2023/03/12 07:10:59;;;;;;;38.35;7.40;;;11.10;70.10;;;;;;4982464;28;20034;-76
2023/03/12 07:13:25;;;;;;;28.35;7.25;;;11.20;70.60;;;;;;4980000;28;20057;-77
2023/03/12 07:15:51;;;;;;;39.63;7.32;;;11.40;70.80;;;;;;4997333;28;20022;-80
2023/03/12 07:18:17;;;;;;;31.90;8.85;;;11.50;70.90;;;;;;5006168;28;20034;-75
2023/03/12 07:20:46;;;;;;;30.13;7.03;;;11.70;71.20;;;;;;5002780;28;20049;-77
2023/03/12 07:23:12;;;;;;;34.40;7.70;;;11.80;71.30;;;;;;5004459;28;20014;-78
2023/03/12 07:25:40;;;;;;;36.67;6.68;;;11.90;71.40;;;;;;5004292;28;20260;-77
2023/03/12 07:28:07;;;;;;;34.75;8.40;;;12.00;71.60;;;;;;4985385;28;20093;-77
2023/03/12 07:30:34;;;;;;;35.67;7.13;;;12.10;71.70;;;;;;4997272;28;20031;-79
2023/03/12 07:33:04;;;;;;;36.20;11.20;;;12.10;71.70;;;;;;4990308;28;20493;-77
2023/03/12 07:35:31;;;;;;;34.00;8.18;;;12.20;71.90;;;;;;4980093;28;20035;-77
2023/03/12 07:37:58;;;;;;;36.50;7.82;;;12.20;71.80;;;;;;4984707;28;20030;-76
2023/03/12 07:40:25;;;;;;;35.65;9.35;;;12.30;71.90;;;;;;4981365;28;20056;-78
2023/03/12 07:42:51;;;;;;;32.95;8.38;;;12.40;72.10;;;;;;4984702;28;20022;-77
2023/03/12 07:45:17;;;;;;;34.15;7.93;;;12.50;72.20;;;;;;4981348;28;20352;-77
2023/03/12 07:47:48;;;;;;;33.45;8.63;;;12.50;72.20;;;;;;4982372;28;20053;-77
2023/03/12 07:50:15;;;;;;;32.40;7.55;;;12.60;72.30;;;;;;4962011;28;20093;-76
2023/03/12 07:52:43;;;;;;;34.03;7.05;;;12.60;72.30;;;;;;4989591;28;20125;-75
2023/03/12 07:55:11;;;;;;;33.72;7.70;;;12.70;72.40;;;;;;4980451;28;20098;-76
2023/03/12 07:57:39;;;;;;;32.35;8.68;;;12.80;72.60;;;;;;4986087;28;20322;-76
2023/03/12 08:00:06;;;;;;;35.65;8.82;;;12.80;72.40;;;;;;4983929;28;20046;-76
2023/03/12 08:02:37;;;;;;;40.60;8.75;;;12.90;72.50;;;;;;4983833;28;20062;-75
2023/03/12 08:05:04;;;;;;;37.13;7.13;;;13.00;72.60;;;;;;4980600;28;20042;-76
2023/03/12 08:07:31;;;;;;;33.40;8.02;;;13.10;72.60;;;;;;4990830;28;20038;-77
2023/03/12 08:10:04;;;;;;;33.45;9.35;;;13.10;72.50;;;;;;4988568;28;20027;-77
2023/03/12 08:12:30;;;;;;;38.80;7.43;;;13.20;72.60;;;;;;4984986;28;20033;-75
2023/03/12 08:14:56;;;;;;;38.33;9.38;;;13.30;72.60;;;;;;4991245;28;20766;-76
2023/03/12 08:17:23;;;;;;;28.65;8.90;;;13.20;72.40;;;;;;4989869;28;20491;-77
2023/03/12 08:19:49;;;;;;;32.97;6.90;;;13.30;72.60;;;;;;4986114;28;20056;-76
2023/03/12 08:22:15;;;;;;;36.65;9.43;;;13.30;72.60;;;;;;4992824;28;20030;-76
2023/03/12 08:24:43;;;;;;;34.38;9.63;;;13.30;72.60;;;;;;4980359;28;20460;-77
2023/03/12 08:27:11;;;;;;;34.22;8.70;;;13.30;72.60;;;;;;4991993;28;20108;-77
2023/03/12 08:29:38;;;;;;;39.28;8.68;;;13.40;72.70;;;;;;4991826;28;20466;-78
2023/03/12 08:32:04;;;;;;;32.72;8.13;;;13.40;72.50;;;;;;4991395;28;20572;-76
2023/03/12 08:34:30;;;;;;;29.23;8.00;;;13.50;72.60;;;;;;4980547;28;20073;-75
2023/03/12 08:36:56;;;;;;;32.95;8.35;;;13.50;72.60;;;;;;4983870;28;20490;-76
2023/03/12 08:39:22;;;;;;;31.17;7.35;;;13.60;72.60;;;;;;4988391;28;20136;-76
2023/03/12 08:41:48;;;;;;;36.63;8.45;;;13.60;72.50;;;;;;4983188;28;20038;-77
2023/03/12 08:44:14;;;;;;;28.00;8.10;;;13.60;72.40;;;;;;4982107;28;20056;-79
2023/03/12 08:46:40;;;;;;;30.55;6.63;;;13.70;72.50;;;;;;4979074;28;20147;-77
2023/03/12 08:49:06;;;;;;;31.13;7.93;;;13.70;72.40;;;;;;4984396;28;20489;-76
2023/03/12 08:51:32;;;;;;;24.15;6.57;;;13.80;72.50;;;;;;4983089;28;20042;-78
2023/03/12 08:54:00;;;;;;;28.35;6.05;;;13.80;72.50;;;;;;4974375;28;21992;-78
2023/03/12 08:56:26;;;;;;;28.92;6.57;;;13.90;72.50;;;;;;4984247;28;20038;-79
2023/03/12 08:58:52;;;;;;;26.25;6.68;;;14.10;73.30;;;;;;4982231;28;20065;-79
2023/03/12 09:01:18;;;;;;;28.58;7.13;;;14.20;72.70;;;;;;4985674;28;20466;-78
2023/03/12 09:03:45;;;;;;;28.27;8.68;;;14.40;72.60;;;;;;4985626;28;20030;-79
2023/03/12 09:06:15;;;;;;;22.10;5.13;;;14.50;72.30;;;;;;4972401;28;20034;-78
2023/03/12 09:08:45;;;;;;;31.30;6.03;;;14.60;72.10;;;;;;4992673;28;20112;-78
2023/03/12 09:11:13;;;;;;;26.92;6.68;;;14.70;71.90;;;;;;4980044;28;20394;-78
2023/03/12 09:13:40;;;;;;;29.35;7.18;;;14.70;71.70;;;;;;4981819;28;20117;-78
2023/03/12 09:16:07;;;;;;;22.33;6.20;;;14.70;71.60;;;;;;4985002;28;20637;-78
2023/03/12 09:18:34;;;;;;;22.83;5.60;;;14.70;71.50;;;;;;4979876;28;20073;-78
2023/03/12 09:21:01;;;;;;;22.15;6.85;;;14.70;71.50;;;;;;4985414;28;20058;-79
2023/03/12 09:23:27;;;;;;;19.77;5.65;;;14.80;71.50;;;;;;4967135;28;20034;-81
2023/03/12 09:25:56;;;;;;;28.38;6.72;;;14.80;71.30;;;;;;4985167;28;20040;-78
2023/03/12 09:28:22;;;;;;;29.48;7.85;;;14.90;71.30;;;;;;4965611;28;20569;-77
2023/03/12 09:30:49;;;;;;;24.88;6.90;;;15.00;71.40;;;;;;4960220;28;20463;-78
2023/03/12 09:33:15;;;;;;;28.20;6.38;;;15.00;71.10;;;;;;4985819;28;20346;-77
2023/03/12 09:35:42;;;;;;;29.35;6.68;;;15.00;71.20;;;;;;4981102;28;20046;-78
2023/03/12 09:38:12;;;;;;;23.77;5.80;;;15.00;70.50;;;;;;4968031;28;20230;-77
2023/03/12 09:40:45;;;;;;;24.13;5.85;;;14.80;70.00;;;;;;4985678;28;20090;-80
2023/03/12 09:43:20;;;;;;;26.17;6.83;;;14.70;69.90;;;;;;4989991;28;20398;-81
2023/03/12 09:45:47;;;;;;;21.92;5.30;;;14.70;69.90;;;;;;4996505;28;20124;-79
2023/03/12 09:48:21;;;;;;;23.45;5.78;;;14.70;69.90;;;;;;4988342;28;20047;-81
2023/03/12 09:50:49;;;;;;;24.83;6.43;;;14.60;69.60;;;;;;4977301;28;20081;-75
2023/03/12 09:53:21;;;;;;;29.42;6.18;;;14.60;69.60;;;;;;4975408;28;20211;-76
2023/03/12 09:55:51;;;;;;;23.42;6.10;;;14.50;69.40;;;;;;4978326;28;20034;-77
2023/03/12 09:58:23;;;;;;;25.35;5.47;;;14.50;69.40;;;;;;4977232;28;20527;-77
2023/03/12 10:00:53;;;;;;;23.05;5.80;;;14.40;69.20;;;;;;4980293;28;20077;-76
2023/03/12 10:03:44;;;;;;;25.55;5.43;;;14.40;69.30;;;;;;4978269;28;20026;-78
2023/03/12 10:06:23;;;;;;;31.83;6.72;;;14.40;69.30;;;;;;4981229;28;20042;-77
2023/03/12 10:09:25;;;;;;;21.67;5.47;;;14.40;69.20;;;;;;4987348;28;20145;-76
2023/03/12 10:12:17;;;;;;;22.95;7.10;;;14.50;69.20;;;;;;4980099;28;20100;-77
2023/03/12 10:14:50;;;;;;;22.47;4.70;;;14.50;69.20;;;;;;4970228;28;20448;-77
2023/03/12 10:17:30;;;;;;;26.92;6.03;;;14.50;69.10;;;;;;4967161;28;20041;-77
2023/03/12 10:20:24;;;;;;;32.33;6.82;;;14.50;69.00;;;;;;4968067;28;20031;-76
2023/03/12 10:23:34;;;;;;;23.30;5.95;;;14.50;69.00;;;;;;4984407;28;20045;-77
2023/03/12 10:26:13;;;;;;;26.50;5.10;;;14.50;68.90;;;;;;4984975;28;20118;-77
2023/03/12 10:28:41;;;;;;;28.38;6.68;;;14.50;69.00;;;;;;4989415;28;20040;-78
2023/03/12 10:31:33;;;;;;;22.33;4.90;;;14.50;69.00;;;;;;4975118;28;20030;-78
2023/03/12 10:34:05;;;;;;;31.20;8.40;;;14.50;69.00;;;;;;4991413;28;20133;-80
2023/03/12 10:36:39;;;;;;;27.08;7.22;;;14.50;69.00;;;;;;4973362;28;20038;-78
2023/03/12 10:39:16;;;;;;;19.83;6.72;;;14.70;69.70;;;;;;4993759;28;20029;-78
2023/03/12 10:41:45;;;;;;;26.05;6.38;;;14.90;69.90;;;;;;4982052;28;20034;-78
2023/03/12 10:44:23;;;;;;;17.95;5.65;;;15.10;69.90;;;;;;4980656;28;20057;-78
2023/03/12 10:47:19;;;;;;;23.23;6.93;;;15.30;69.90;;;;;;4983796;28;20415;-79
2023/03/12 10:49:49;;;;;;;18.70;5.30;;;15.50;70.00;;;;;;4980257;28;20545;-79
2023/03/12 10:52:21;;;;;;;17.10;4.68;;;15.80;70.10;;;;;;4980342;28;20065;-79
2023/03/12 10:54:50;;;;;;;17.30;4.88;;;16.10;70.00;;;;;;4980575;28;20094;-80
2023/03/12 10:57:18;;;;;;;16.45;5.82;;;16.40;69.90;;;;;;4985411;28;20042;-79
2023/03/12 10:59:46;;;;;;;14.93;5.15;;;16.80;69.90;;;;;;4987747;28;20735;-78
2023/03/12 11:02:33;;;;;;;15.20;4.82;;;17.00;69.40;;;;;;4981525;28;20146;-78
2023/03/12 11:05:17;;;;;;;14.35;4.35;;;17.40;69.30;;;;;;4981660;28;20045;-79
2023/03/12 11:07:43;;;;;;;;;;;17.70;69.10;;;;;;4981257;28;20042;-78
2023/03/12 11:10:09;;;;;;;13.75;4.22;;;18.00;68.90;;;;;;4988175;28;19913;-78
2023/03/12 11:12:38;;;;;;;18.67;5.07;;;18.30;68.80;;;;;;4979964;28;20041;-79
2023/03/12 11:15:43;;;;;;;13.93;4.60;;;18.50;68.30;;;;;;4979331;28;20069;-79
2023/03/12 11:18:24;;;;;;;18.40;4.78;;;18.80;68.00;;;;;;4971153;28;20103;-81
2023/03/12 11:20:56;;;;;;;13.38;4.55;;;19.10;67.90;;;;;;4975769;28;20080;-79
2023/03/12 11:23:26;;;;;;;13.93;4.70;;;19.20;67.40;;;;;;4974590;28;20494;-79
2023/03/12 11:26:00;;;;;;;14.75;3.92;;;19.40;67.30;;;;;;4980657;28;20460;-79
2023/03/12 11:28:36;;;;;;;;;;;19.50;67.00;;;;;;4977486;28;20030;-78
2023/03/12 11:31:07;;;;;;;12.02;4.38;;;19.70;67.00;;;;;;4968448;28;20544;-77
2023/03/12 11:33:33;;;;;;;15.80;4.35;;;19.90;67.20;;;;;;4981913;28;20386;-80
2023/03/12 11:36:05;;;;;;;19.15;5.55;;;20.00;66.70;;;;;;4990984;28;20030;-78
2023/03/12 11:38:40;;;;;;;10.75;3.53;;;20.10;66.20;;;;;;4978783;28;20161;-79
2023/03/12 11:41:27;;;;;;;16.52;4.53;;;20.30;66.10;;;;;;4982142;28;20042;-78
2023/03/12 11:44:06;;;;;;;12.15;4.53;;;20.40;65.80;;;;;;4988040;28;20030;-78
2023/03/12 11:46:41;;;;;;;10.63;3.85;;;20.50;65.70;;;;;;4980464;28;20512;-79
2023/03/12 11:49:21;;;;;;;19.48;5.32;;;20.60;65.30;;;;;;4981931;28;20728;-80
2023/03/12 11:52:08;;;;;;;10.70;3.58;;;20.60;65.00;;;;;;4980516;28;20513;-79
2023/03/12 11:54:53;;;;;;;14.27;4.30;;;20.70;64.90;;;;;;4969757;28;20139;-77
2023/03/12 11:57:44;;;;;;;10.75;3.55;;;20.80;64.40;;;;;;4986865;28;20026;-80
2023/03/12 12:00:16;;;;;;;9.43;4.35;;;20.80;64.30;;;;;;4989328;28;20042;-78
2023/03/12 12:03:01;;;;;;;18.95;5.07;;;20.70;64.00;;;;;;4980907;28;20479;-78
2023/03/12 12:05:46;;;;;;;12.32;3.90;;;20.70;63.70;;;;;;4983071;28;20105;-79
2023/03/12 12:08:27;;;;;;;11.25;4.20;;;20.80;64.00;;;;;;4977832;28;20031;-80
2023/03/12 12:11:12;;;;;;;10.80;3.88;;;20.90;63.80;;;;;;4991250;28;20026;-92
2023/03/12 12:14:15;;;;;;;12.10;4.30;;;21.00;63.50;;;;;;4989933;28;20061;-91
2023/03/12 12:17:18;;;;;;;11.27;3.92;;;21.20;63.50;;;;;;4985871;28;20117;-90
2023/03/12 12:20:17;;;;;;;12.25;4.32;;;21.40;63.70;;;;;;4999450;28;20117;-92
2023/03/12 12:23:16;;;;;;;14.68;3.85;;;21.60;63.50;;;;;;4986697;28;20425;-92
2023/03/12 12:26:04;;;;;;;10.10;4.10;;;21.80;63.40;;;;;;4992495;28;20088;-93
2023/03/12 12:29:04;;;;;;;14.80;4.88;;;21.90;63.30;;;;;;4992932;28;20489;-91
2023/03/12 12:32:00;;;;;;;9.00;3.00;;;21.90;63.00;;;;;;4993084;28;20636;-90
2023/03/12 12:34:26;;;;;;;9.65;2.95;;;21.90;63.00;;;;;;4976932;28;20513;-75
2023/03/12 12:37:06;;;;;;;16.85;3.97;;;22.00;63.30;;;;;;4985364;28;20053;-77
2023/03/12 12:39:36;;;;;;;22.15;7.22;;;21.90;62.60;;;;;;4988332;28;20073;-78
2023/03/12 12:42:12;;;;;;;14.18;3.72;;;21.80;62.00;;;;;;4975902;28;20035;-79
2023/03/12 12:44:47;;;;;;;18.30;4.45;;;21.60;61.50;;;;;;4981467;28;20034;-78
2023/03/12 12:47:21;;;;;;;16.58;4.57;;;21.50;61.10;;;;;;4981007;28;20049;-79
2023/03/12 12:49:53;;;;;;;15.63;5.25;;;21.30;60.60;;;;;;4962078;28;20558;-79
2023/03/12 12:52:20;;;;;;;14.30;4.75;;;21.30;60.70;;;;;;4990136;28;20034;-81